AAL9104 MTPP-TNCC
Flight info
| Callsign | AAL9104 |
|---|---|
| Flight time | 1h 18m |
| Altitude | 35000 |
| Route | TOVOL1N TOVOL DCT DARKE UA315 VESKA VESKA1B |
| Aircraft | A21N/M-SDE3FGHIRWY/LB1 |
Departure
| Time | 2026-04-17 12:25 |
|---|---|
| Airport | Toussaint Louverture International Airport (MTPP) |
Arrival
| Time | 2026-04-17 13:44 |
|---|---|
| Airport | Hato International Airport (TNCC) |
| Time | Latitude | Longitude | Altitude | Speed | Heading |
|---|---|---|---|---|---|
| 2026-04-17 12:10 | 18.57621 | -72.29508 | 149 ft | 0 kts | 187° |
| 2026-04-17 12:17 | 18.57623 | -72.29508 | 149 ft | 2 kts | 188° |
| 2026-04-17 12:18 | 18.57632 | -72.29507 | 149 ft | 2 kts | 187° |
| 2026-04-17 12:18 | 18.57647 | -72.29508 | 149 ft | 2 kts | 160° |
| 2026-04-17 12:18 | 18.57661 | -72.29515 | 149 ft | 2 kts | 142° |
| 2026-04-17 12:18 | 18.57671 | -72.29527 | 148 ft | 2 kts | 123° |
| 2026-04-17 12:19 | 18.57677 | -72.29540 | 148 ft | 2 kts | 103° |
| 2026-04-17 12:19 | 18.57679 | -72.29552 | 148 ft | 0 kts | 89° |
| 2026-04-17 12:19 | 18.57678 | -72.29559 | 148 ft | 0 kts | 86° |
| 2026-04-17 12:21 | 18.57683 | -72.29508 | 149 ft | 17 kts | 75° |
| 2026-04-17 12:21 | 18.57780 | -72.29462 | 148 ft | 16 kts | 358° |
| 2026-04-17 12:21 | 18.57896 | -72.29468 | 147 ft | 16 kts | 357° |
| 2026-04-17 12:22 | 18.57992 | -72.29422 | 147 ft | 16 kts | 72° |
| 2026-04-17 12:22 | 18.58006 | -72.29269 | 149 ft | 27 kts | 88° |
| 2026-04-17 12:22 | 18.58018 | -72.29037 | 152 ft | 34 kts | 88° |
| 2026-04-17 12:22 | 18.58029 | -72.28793 | 157 ft | 31 kts | 88° |
| 2026-04-17 12:23 | 18.58039 | -72.28575 | 162 ft | 28 kts | 87° |
| 2026-04-17 12:23 | 18.58048 | -72.28374 | 166 ft | 27 kts | 85° |
| 2026-04-17 12:23 | 18.58061 | -72.28158 | 171 ft | 31 kts | 87° |
| 2026-04-17 12:23 | 18.58073 | -72.27936 | 175 ft | 23 kts | 82° |
| 2026-04-17 12:24 | 18.58077 | -72.27861 | 176 ft | 6 kts | 240° |
| 2026-04-17 12:24 | 18.58075 | -72.27874 | 176 ft | 0 kts | 264° |
| 2026-04-17 12:24 | 18.58067 | -72.27969 | 175 ft | 45 kts | 266° |
| 2026-04-17 12:24 | 18.58034 | -72.28577 | 163 ft | 118 kts | 267° |
| 2026-04-17 12:25 | 18.57980 | -72.29659 | 148 ft | 175 kts | 268° |
| 2026-04-17 12:25 | 18.57947 | -72.31043 | 519 ft | 192 kts | 268° |
| 2026-04-17 12:25 | 18.57897 | -72.32404 | 1295 ft | 188 kts | 266° |
| 2026-04-17 12:25 | 18.57811 | -72.33765 | 1974 ft | 190 kts | 266° |
| 2026-04-17 12:26 | 18.57723 | -72.35197 | 2464 ft | 205 kts | 267° |
| 2026-04-17 12:26 | 18.57745 | -72.36758 | 2921 ft | 222 kts | 275° |
| 2026-04-17 12:26 | 18.58010 | -72.38415 | 3361 ft | 240 kts | 283° |
| 2026-04-17 12:26 | 18.58378 | -72.40205 | 3744 ft | 263 kts | 280° |
| 2026-04-17 12:27 | 18.58698 | -72.42153 | 4287 ft | 279 kts | 279° |
| 2026-04-17 12:27 | 18.59007 | -72.44195 | 5065 ft | 285 kts | 278° |
| 2026-04-17 12:27 | 18.59307 | -72.46251 | 5910 ft | 287 kts | 278° |
| 2026-04-17 12:27 | 18.59601 | -72.48320 | 6715 ft | 290 kts | 278° |
| 2026-04-17 12:28 | 18.59896 | -72.50410 | 7476 ft | 294 kts | 278° |
| 2026-04-17 12:28 | 18.60197 | -72.52540 | 8239 ft | 296 kts | 278° |
| 2026-04-17 12:28 | 18.60501 | -72.54692 | 8973 ft | 300 kts | 279° |
| 2026-04-17 12:28 | 18.60789 | -72.56857 | 9682 ft | 303 kts | 275° |
| 2026-04-17 12:29 | 18.60537 | -72.59074 | 10336 ft | 306 kts | 249° |
| 2026-04-17 12:29 | 18.59450 | -72.60973 | 10820 ft | 314 kts | 225° |
| 2026-04-17 12:29 | 18.57627 | -72.62312 | 11112 ft | 326 kts | 200° |
| 2026-04-17 12:29 | 18.55381 | -72.62994 | 11430 ft | 341 kts | 192° |
| 2026-04-17 12:30 | 18.53046 | -72.63609 | 11798 ft | 354 kts | 193° |
| 2026-04-17 12:30 | 18.50652 | -72.64267 | 12386 ft | 359 kts | 193° |
| 2026-04-17 12:30 | 18.48203 | -72.64965 | 13007 ft | 363 kts | 194° |
| 2026-04-17 12:30 | 18.45776 | -72.65665 | 13599 ft | 366 kts | 193° |
| 2026-04-17 12:31 | 18.43246 | -72.65963 | 14102 ft | 368 kts | 172° |
| 2026-04-17 12:31 | 18.40776 | -72.65217 | 14634 ft | 366 kts | 149° |
| 2026-04-17 12:31 | 18.38799 | -72.63622 | 15137 ft | 364 kts | 129° |
| 2026-04-17 12:31 | 18.37448 | -72.61365 | 15649 ft | 363 kts | 112° |
| 2026-04-17 12:32 | 18.36398 | -72.58968 | 16166 ft | 366 kts | 111° |
| 2026-04-17 12:32 | 18.35315 | -72.56503 | 16674 ft | 370 kts | 111° |
| 2026-04-17 12:32 | 18.34225 | -72.54049 | 17165 ft | 374 kts | 111° |
| 2026-04-17 12:32 | 18.33118 | -72.51574 | 17642 ft | 378 kts | 111° |
| 2026-04-17 12:33 | 18.31986 | -72.49058 | 18112 ft | 382 kts | 111° |
| 2026-04-17 12:33 | 18.30849 | -72.46536 | 18582 ft | 385 kts | 111° |
| 2026-04-17 12:33 | 18.29691 | -72.43973 | 19054 ft | 389 kts | 111° |
| 2026-04-17 12:33 | 18.28520 | -72.41386 | 19528 ft | 392 kts | 111° |
| 2026-04-17 12:34 | 18.27353 | -72.38813 | 19979 ft | 395 kts | 112° |
| 2026-04-17 12:34 | 18.26175 | -72.36216 | 20418 ft | 398 kts | 112° |
| 2026-04-17 12:34 | 18.24975 | -72.33576 | 20861 ft | 402 kts | 112° |
| 2026-04-17 12:34 | 18.23764 | -72.30911 | 21296 ft | 405 kts | 112° |
| 2026-04-17 12:35 | 18.22553 | -72.28243 | 21731 ft | 408 kts | 112° |
| 2026-04-17 12:35 | 18.21325 | -72.25542 | 22140 ft | 411 kts | 112° |
| 2026-04-17 12:35 | 18.20096 | -72.22841 | 22524 ft | 415 kts | 112° |
| 2026-04-17 12:35 | 18.18851 | -72.20101 | 22930 ft | 418 kts | 112° |
| 2026-04-17 12:37 | 18.05934 | -72.03397 | 25541 ft | 451 kts | 147° |
| 2026-04-17 12:37 | 18.03236 | -72.01719 | 25907 ft | 453 kts | 147° |
| 2026-04-17 12:38 | 18.00529 | -72.00021 | 26330 ft | 454 kts | 146° |
| 2026-04-17 12:38 | 17.97833 | -71.98309 | 26682 ft | 456 kts | 146° |
| 2026-04-17 12:38 | 17.95095 | -71.96561 | 27007 ft | 458 kts | 146° |
| 2026-04-17 12:38 | 17.92354 | -71.94808 | 27346 ft | 460 kts | 146° |
| 2026-04-17 12:39 | 17.89602 | -71.93068 | 27674 ft | 463 kts | 146° |
| 2026-04-17 12:39 | 17.86862 | -71.91349 | 27962 ft | 465 kts | 146° |
| 2026-04-17 12:39 | 17.84055 | -71.89589 | 28252 ft | 468 kts | 146° |
| 2026-04-17 12:39 | 17.81249 | -71.87827 | 28527 ft | 470 kts | 147° |
| 2026-04-17 12:40 | 17.78458 | -71.86075 | 28813 ft | 472 kts | 147° |
| 2026-04-17 12:40 | 17.75606 | -71.84284 | 29091 ft | 474 kts | 146° |
| 2026-04-17 12:40 | 17.72806 | -71.82526 | 29351 ft | 476 kts | 147° |
| 2026-04-17 12:40 | 17.69953 | -71.80734 | 29634 ft | 478 kts | 147° |
| 2026-04-17 12:41 | 17.67097 | -71.78941 | 29993 ft | 477 kts | 147° |
| 2026-04-17 12:41 | 17.64228 | -71.77140 | 30388 ft | 475 kts | 147° |
| 2026-04-17 12:41 | 17.61400 | -71.75366 | 30770 ft | 474 kts | 147° |
| 2026-04-17 12:41 | 17.58602 | -71.73611 | 31131 ft | 473 kts | 147° |
| 2026-04-17 12:42 | 17.55780 | -71.71841 | 31474 ft | 472 kts | 147° |
| 2026-04-17 12:42 | 17.52971 | -71.70081 | 31793 ft | 471 kts | 147° |
| 2026-04-17 12:42 | 17.50149 | -71.68317 | 32100 ft | 470 kts | 147° |
| 2026-04-17 12:42 | 17.47327 | -71.66550 | 32404 ft | 470 kts | 147° |
| 2026-04-17 12:43 | 17.44558 | -71.64815 | 32701 ft | 469 kts | 147° |
| 2026-04-17 12:43 | 17.41741 | -71.63050 | 32989 ft | 468 kts | 147° |
| 2026-04-17 12:43 | 17.38958 | -71.61307 | 33267 ft | 468 kts | 147° |
| 2026-04-17 12:43 | 17.36169 | -71.59560 | 33509 ft | 468 kts | 147° |
| 2026-04-17 12:44 | 17.33358 | -71.57799 | 33740 ft | 468 kts | 147° |
| 2026-04-17 12:44 | 17.30565 | -71.56049 | 33946 ft | 469 kts | 147° |
| 2026-04-17 12:44 | 17.27747 | -71.54285 | 34161 ft | 469 kts | 147° |
| 2026-04-17 12:44 | 17.24963 | -71.52543 | 34347 ft | 470 kts | 147° |
| 2026-04-17 12:45 | 17.22153 | -71.50784 | 34534 ft | 471 kts | 147° |
| 2026-04-17 12:45 | 17.19346 | -71.49029 | 34735 ft | 471 kts | 148° |
| 2026-04-17 12:45 | 17.16498 | -71.47251 | 34932 ft | 471 kts | 148° |
| 2026-04-17 12:46 | 17.10887 | -71.43752 | 34970 ft | 472 kts | 148° |
| 2026-04-17 12:46 | 17.05239 | -71.40227 | 34973 ft | 472 kts | 148° |
| 2026-04-17 12:47 | 16.99603 | -71.36706 | 34975 ft | 472 kts | 148° |
| 2026-04-17 12:47 | 16.93946 | -71.33176 | 34973 ft | 471 kts | 148° |
| 2026-04-17 12:48 | 16.88315 | -71.29672 | 34972 ft | 471 kts | 148° |
| 2026-04-17 12:48 | 16.82679 | -71.26175 | 34976 ft | 470 kts | 148° |
| 2026-04-17 12:49 | 16.77050 | -71.22679 | 34975 ft | 470 kts | 148° |
| 2026-04-17 12:49 | 16.71426 | -71.19186 | 34975 ft | 470 kts | 148° |
| 2026-04-17 12:50 | 16.65834 | -71.15715 | 34973 ft | 470 kts | 148° |
| 2026-04-17 12:50 | 16.60183 | -71.12209 | 34972 ft | 470 kts | 149° |
| 2026-04-17 12:51 | 16.54583 | -71.08737 | 34972 ft | 471 kts | 148° |
| 2026-04-17 12:51 | 16.48927 | -71.05233 | 34973 ft | 470 kts | 149° |
| 2026-04-17 12:52 | 16.43332 | -71.01768 | 34972 ft | 470 kts | 149° |
| 2026-04-17 12:52 | 16.37726 | -70.98299 | 34968 ft | 469 kts | 149° |
| 2026-04-17 12:53 | 16.32091 | -70.94814 | 34969 ft | 469 kts | 149° |
| 2026-04-17 12:53 | 16.26473 | -70.91344 | 34968 ft | 469 kts | 149° |
| 2026-04-17 12:54 | 16.20842 | -70.87864 | 34966 ft | 470 kts | 149° |
| 2026-04-17 12:54 | 16.15220 | -70.84391 | 34966 ft | 470 kts | 149° |
| 2026-04-17 12:55 | 16.09594 | -70.80918 | 34966 ft | 470 kts | 149° |
| 2026-04-17 12:55 | 16.03996 | -70.77467 | 34967 ft | 469 kts | 150° |
| 2026-04-17 12:56 | 15.98236 | -70.74255 | 34963 ft | 468 kts | 155° |
| 2026-04-17 12:56 | 15.92251 | -70.71570 | 34966 ft | 468 kts | 158° |
| 2026-04-17 12:57 | 15.86274 | -70.68941 | 34969 ft | 468 kts | 158° |
| 2026-04-17 12:57 | 15.80238 | -70.66285 | 34975 ft | 468 kts | 158° |
| 2026-04-17 12:58 | 15.74255 | -70.63650 | 34972 ft | 467 kts | 158° |
| 2026-04-17 12:58 | 15.68278 | -70.61016 | 34970 ft | 467 kts | 158° |
| 2026-04-17 12:59 | 15.62305 | -70.58383 | 34958 ft | 466 kts | 159° |
| 2026-04-17 12:59 | 15.56294 | -70.55740 | 34958 ft | 467 kts | 159° |
| 2026-04-17 13:00 | 15.50337 | -70.53117 | 34955 ft | 466 kts | 159° |
| 2026-04-17 13:00 | 15.44351 | -70.50485 | 34952 ft | 466 kts | 159° |
| 2026-04-17 13:01 | 15.38391 | -70.47866 | 34954 ft | 465 kts | 159° |
| 2026-04-17 13:01 | 15.32435 | -70.45252 | 34951 ft | 465 kts | 159° |
| 2026-04-17 13:02 | 15.26473 | -70.42636 | 34952 ft | 464 kts | 159° |
| 2026-04-17 13:02 | 15.20538 | -70.40032 | 34950 ft | 464 kts | 159° |
| 2026-04-17 13:03 | 15.14590 | -70.37423 | 34953 ft | 463 kts | 160° |
| 2026-04-17 13:03 | 15.08621 | -70.34809 | 34953 ft | 463 kts | 160° |
| 2026-04-17 13:04 | 15.02710 | -70.32222 | 34956 ft | 464 kts | 160° |
| 2026-04-17 13:04 | 14.96740 | -70.29610 | 34957 ft | 463 kts | 160° |
| 2026-04-17 13:05 | 14.90791 | -70.27009 | 34958 ft | 462 kts | 160° |
| 2026-04-17 13:05 | 14.84853 | -70.24413 | 34959 ft | 462 kts | 160° |
| 2026-04-17 13:06 | 14.78956 | -70.21837 | 34956 ft | 461 kts | 160° |
| 2026-04-17 13:06 | 14.73044 | -70.19257 | 34954 ft | 461 kts | 160° |
| 2026-04-17 13:07 | 14.67125 | -70.16676 | 34954 ft | 460 kts | 160° |
| 2026-04-17 13:07 | 14.61207 | -70.14097 | 34954 ft | 461 kts | 161° |
| 2026-04-17 13:08 | 14.55301 | -70.11520 | 34952 ft | 459 kts | 161° |
| 2026-04-17 13:08 | 14.49443 | -70.08969 | 34948 ft | 459 kts | 161° |
| 2026-04-17 13:09 | 14.43544 | -70.06403 | 34950 ft | 458 kts | 161° |
| 2026-04-17 13:09 | 14.37688 | -70.03855 | 34950 ft | 458 kts | 161° |
| 2026-04-17 13:10 | 14.31786 | -70.01289 | 34941 ft | 457 kts | 161° |
| 2026-04-17 13:10 | 14.28886 | -70.00031 | 34680 ft | 456 kts | 161° |
| 2026-04-17 13:10 | 14.25952 | -69.98755 | 34403 ft | 454 kts | 161° |
| 2026-04-17 13:10 | 14.23051 | -69.97495 | 34127 ft | 451 kts | 161° |
| 2026-04-17 13:11 | 14.20175 | -69.96244 | 33854 ft | 448 kts | 161° |
| 2026-04-17 13:11 | 14.17322 | -69.95006 | 33583 ft | 447 kts | 161° |
| 2026-04-17 13:11 | 14.14431 | -69.93751 | 33308 ft | 446 kts | 161° |
| 2026-04-17 13:11 | 14.11595 | -69.92520 | 33037 ft | 447 kts | 161° |
| 2026-04-17 13:12 | 14.08721 | -69.91276 | 32778 ft | 447 kts | 161° |
| 2026-04-17 13:12 | 14.02931 | -69.88766 | 32268 ft | 449 kts | 162° |
| 2026-04-17 13:12 | 14.00049 | -69.87517 | 32009 ft | 450 kts | 162° |
| 2026-04-17 13:13 | 13.97165 | -69.86269 | 31623 ft | 452 kts | 162° |
| 2026-04-17 13:13 | 13.94273 | -69.85020 | 31059 ft | 454 kts | 162° |
| 2026-04-17 13:13 | 13.91342 | -69.83752 | 30333 ft | 456 kts | 161° |
| 2026-04-17 13:13 | 13.88424 | -69.82488 | 29706 ft | 454 kts | 161° |
| 2026-04-17 13:14 | 13.85505 | -69.81222 | 29189 ft | 451 kts | 162° |
| 2026-04-17 13:14 | 13.82639 | -69.79981 | 28706 ft | 448 kts | 162° |
| 2026-04-17 13:14 | 13.79783 | -69.78744 | 28214 ft | 444 kts | 162° |
| 2026-04-17 13:14 | 13.76928 | -69.77509 | 27746 ft | 440 kts | 162° |
| 2026-04-17 13:15 | 13.74131 | -69.76299 | 27296 ft | 437 kts | 161° |
| 2026-04-17 13:15 | 13.71333 | -69.75092 | 26822 ft | 433 kts | 161° |
| 2026-04-17 13:15 | 13.68572 | -69.73899 | 26359 ft | 430 kts | 161° |
| 2026-04-17 13:15 | 13.65799 | -69.72701 | 25890 ft | 427 kts | 161° |
| 2026-04-17 13:16 | 13.63087 | -69.71530 | 25429 ft | 424 kts | 161° |
| 2026-04-17 13:16 | 13.60361 | -69.70353 | 24960 ft | 422 kts | 161° |
| 2026-04-17 13:16 | 13.57651 | -69.69184 | 24494 ft | 419 kts | 161° |
| 2026-04-17 13:16 | 13.54981 | -69.68032 | 24025 ft | 417 kts | 161° |
| 2026-04-17 13:17 | 13.52325 | -69.66886 | 23564 ft | 415 kts | 161° |
| 2026-04-17 13:17 | 13.49636 | -69.65726 | 23175 ft | 410 kts | 161° |
| 2026-04-17 13:17 | 13.47022 | -69.64596 | 22810 ft | 404 kts | 160° |
| 2026-04-17 13:17 | 13.44462 | -69.63492 | 22456 ft | 399 kts | 160° |
| 2026-04-17 13:18 | 13.41917 | -69.62395 | 22105 ft | 393 kts | 160° |
| 2026-04-17 13:18 | 13.39418 | -69.61317 | 21684 ft | 387 kts | 160° |
| 2026-04-17 13:18 | 13.36938 | -69.60247 | 21257 ft | 381 kts | 160° |
| 2026-04-17 13:18 | 13.34513 | -69.59202 | 20828 ft | 375 kts | 160° |
| 2026-04-17 13:19 | 13.32124 | -69.58173 | 20452 ft | 370 kts | 160° |
| 2026-04-17 13:19 | 13.29752 | -69.57153 | 20111 ft | 365 kts | 160° |
| 2026-04-17 13:19 | 13.27417 | -69.56147 | 19739 ft | 359 kts | 160° |
| 2026-04-17 13:19 | 13.25139 | -69.55167 | 19332 ft | 354 kts | 160° |
| 2026-04-17 13:20 | 13.22865 | -69.54188 | 18960 ft | 349 kts | 160° |
| 2026-04-17 13:20 | 13.20650 | -69.53234 | 18603 ft | 344 kts | 160° |
| 2026-04-17 13:20 | 13.18446 | -69.52286 | 18247 ft | 339 kts | 159° |
| 2026-04-17 13:20 | 13.16282 | -69.51356 | 17896 ft | 334 kts | 159° |
| 2026-04-17 13:21 | 13.14179 | -69.50450 | 17557 ft | 329 kts | 159° |
| 2026-04-17 13:21 | 13.12049 | -69.49535 | 17229 ft | 325 kts | 159° |
| 2026-04-17 13:21 | 13.09991 | -69.48650 | 16873 ft | 323 kts | 159° |
| 2026-04-17 13:21 | 13.07908 | -69.47755 | 16494 ft | 322 kts | 159° |
| 2026-04-17 13:22 | 13.05854 | -69.46872 | 16127 ft | 320 kts | 159° |
| 2026-04-17 13:22 | 13.03800 | -69.45988 | 15759 ft | 318 kts | 159° |
| 2026-04-17 13:22 | 13.01760 | -69.45112 | 15392 ft | 317 kts | 159° |
| 2026-04-17 13:22 | 12.99717 | -69.44233 | 15031 ft | 315 kts | 159° |
| 2026-04-17 13:23 | 12.97729 | -69.43379 | 14676 ft | 313 kts | 159° |
| 2026-04-17 13:23 | 12.95700 | -69.42507 | 14310 ft | 311 kts | 159° |
| 2026-04-17 13:23 | 12.93711 | -69.41653 | 13941 ft | 310 kts | 159° |
| 2026-04-17 13:23 | 12.91749 | -69.40811 | 13584 ft | 308 kts | 159° |
| 2026-04-17 13:24 | 12.89754 | -69.39955 | 13225 ft | 306 kts | 159° |
| 2026-04-17 13:24 | 12.87800 | -69.39118 | 12866 ft | 304 kts | 159° |
| 2026-04-17 13:24 | 12.85851 | -69.38284 | 12524 ft | 302 kts | 159° |
| 2026-04-17 13:24 | 12.83920 | -69.37457 | 12175 ft | 300 kts | 158° |
| 2026-04-17 13:25 | 12.82005 | -69.36635 | 11821 ft | 298 kts | 158° |
| 2026-04-17 13:25 | 12.80073 | -69.35807 | 11472 ft | 296 kts | 158° |
| 2026-04-17 13:25 | 12.78190 | -69.35000 | 11134 ft | 294 kts | 157° |
| 2026-04-17 13:25 | 12.76266 | -69.34316 | 10752 ft | 292 kts | 172° |
| 2026-04-17 13:26 | 12.74286 | -69.34541 | 10327 ft | 291 kts | 204° |
| 2026-04-17 13:26 | 12.72723 | -69.35825 | 10001 ft | 285 kts | 238° |
| 2026-04-17 13:26 | 12.72005 | -69.37695 | 9962 ft | 286 kts | 263° |
| 2026-04-17 13:26 | 12.72152 | -69.39709 | 9943 ft | 285 kts | 289° |
| 2026-04-17 13:27 | 12.73149 | -69.41436 | 9935 ft | 283 kts | 316° |
| 2026-04-17 13:27 | 12.74780 | -69.42526 | 9938 ft | 281 kts | 338° |
| 2026-04-17 13:27 | 12.76619 | -69.43265 | 9934 ft | 281 kts | 339° |
| 2026-04-17 13:27 | 12.78431 | -69.44009 | 9931 ft | 282 kts | 338° |
| 2026-04-17 13:28 | 12.80263 | -69.44782 | 9929 ft | 282 kts | 338° |
| 2026-04-17 13:28 | 12.82065 | -69.45540 | 9929 ft | 281 kts | 342° |
| 2026-04-17 13:28 | 12.83982 | -69.45759 | 9913 ft | 280 kts | 12° |
| 2026-04-17 13:28 | 12.85762 | -69.44959 | 9925 ft | 280 kts | 39° |
| 2026-04-17 13:29 | 12.86966 | -69.43407 | 9941 ft | 280 kts | 66° |
| 2026-04-17 13:29 | 12.87337 | -69.41460 | 9971 ft | 281 kts | 94° |
| 2026-04-17 13:29 | 12.86798 | -69.39565 | 9994 ft | 283 kts | 120° |
| 2026-04-17 13:29 | 12.85443 | -69.38113 | 10023 ft | 286 kts | 148° |
| 2026-04-17 13:30 | 12.83612 | -69.37266 | 10103 ft | 287 kts | 158° |
| 2026-04-17 13:30 | 12.81763 | -69.36506 | 10198 ft | 287 kts | 157° |
| 2026-04-17 13:30 | 12.79916 | -69.35729 | 10077 ft | 287 kts | 156° |
| 2026-04-17 13:30 | 12.78081 | -69.34944 | 9990 ft | 286 kts | 156° |
| 2026-04-17 13:31 | 12.76221 | -69.34148 | 9954 ft | 286 kts | 156° |
| 2026-04-17 13:31 | 12.74386 | -69.33366 | 9938 ft | 286 kts | 156° |
| 2026-04-17 13:31 | 12.72540 | -69.32580 | 9930 ft | 286 kts | 156° |
| 2026-04-17 13:31 | 12.70705 | -69.31797 | 9926 ft | 286 kts | 156° |
| 2026-04-17 13:32 | 12.68858 | -69.31009 | 9925 ft | 286 kts | 156° |
| 2026-04-17 13:32 | 12.67020 | -69.30223 | 9922 ft | 286 kts | 156° |
| 2026-04-17 13:32 | 12.65177 | -69.29434 | 9920 ft | 286 kts | 156° |
| 2026-04-17 13:32 | 12.63346 | -69.28651 | 9913 ft | 286 kts | 156° |
| 2026-04-17 13:33 | 12.61498 | -69.27861 | 9695 ft | 286 kts | 156° |
| 2026-04-17 13:33 | 12.59658 | -69.27077 | 9422 ft | 284 kts | 156° |
| 2026-04-17 13:33 | 12.57828 | -69.26295 | 9140 ft | 282 kts | 156° |
| 2026-04-17 13:33 | 12.56030 | -69.25525 | 8860 ft | 279 kts | 156° |
| 2026-04-17 13:34 | 12.54249 | -69.24764 | 8530 ft | 277 kts | 156° |
| 2026-04-17 13:34 | 12.52466 | -69.24003 | 8148 ft | 276 kts | 156° |
| 2026-04-17 13:34 | 12.50697 | -69.23249 | 7855 ft | 272 kts | 155° |
| 2026-04-17 13:34 | 12.48965 | -69.22509 | 7533 ft | 270 kts | 155° |
| 2026-04-17 13:35 | 12.47215 | -69.21762 | 7209 ft | 267 kts | 155° |
| 2026-04-17 13:35 | 12.45505 | -69.21031 | 6881 ft | 265 kts | 155° |
| 2026-04-17 13:35 | 12.43806 | -69.20306 | 6558 ft | 263 kts | 155° |
| 2026-04-17 13:35 | 12.42128 | -69.19588 | 6229 ft | 261 kts | 155° |
| 2026-04-17 13:36 | 12.40464 | -69.18877 | 5903 ft | 258 kts | 154° |
| 2026-04-17 13:36 | 12.38809 | -69.18173 | 5570 ft | 257 kts | 154° |
| 2026-04-17 13:36 | 12.37146 | -69.17462 | 5224 ft | 256 kts | 154° |
| 2026-04-17 13:36 | 12.35519 | -69.16769 | 4896 ft | 254 kts | 154° |
| 2026-04-17 13:37 | 12.33888 | -69.16104 | 4585 ft | 252 kts | 160° |
| 2026-04-17 13:37 | 12.32132 | -69.15906 | 4255 ft | 253 kts | 182° |
| 2026-04-17 13:37 | 12.30427 | -69.16262 | 3904 ft | 247 kts | 190° |
| 2026-04-17 13:37 | 12.28777 | -69.16709 | 3570 ft | 238 kts | 191° |
| 2026-04-17 13:38 | 12.27220 | -69.17136 | 3280 ft | 227 kts | 190° |
| 2026-04-17 13:38 | 12.25713 | -69.17318 | 3040 ft | 205 kts | 169° |
| 2026-04-17 13:38 | 12.24416 | -69.16879 | 2736 ft | 194 kts | 145° |
| 2026-04-17 13:38 | 12.23482 | -69.15945 | 2525 ft | 187 kts | 120° |
| 2026-04-17 13:39 | 12.22946 | -69.14766 | 2495 ft | 174 kts | 107° |
| 2026-04-17 13:39 | 12.22632 | -69.13645 | 2466 ft | 151 kts | 103° |
| 2026-04-17 13:39 | 12.22402 | -69.12619 | 2497 ft | 147 kts | 102° |
| 2026-04-17 13:39 | 12.22188 | -69.11608 | 2494 ft | 147 kts | 102° |
| 2026-04-17 13:40 | 12.21973 | -69.10578 | 2497 ft | 146 kts | 101° |
| 2026-04-17 13:40 | 12.21760 | -69.09563 | 2438 ft | 147 kts | 102° |
| 2026-04-17 13:40 | 12.21547 | -69.08550 | 2242 ft | 144 kts | 102° |
| 2026-04-17 13:40 | 12.21337 | -69.07553 | 2056 ft | 143 kts | 101° |
| 2026-04-17 13:41 | 12.21127 | -69.06558 | 1878 ft | 143 kts | 101° |
| 2026-04-17 13:41 | 12.20918 | -69.05569 | 1697 ft | 142 kts | 101° |
| 2026-04-17 13:41 | 12.20709 | -69.04582 | 1514 ft | 142 kts | 101° |
| 2026-04-17 13:41 | 12.20501 | -69.03593 | 1334 ft | 142 kts | 101° |
| 2026-04-17 13:42 | 12.20293 | -69.02609 | 1150 ft | 141 kts | 101° |
| 2026-04-17 13:42 | 12.20086 | -69.01627 | 969 ft | 141 kts | 101° |
| 2026-04-17 13:42 | 12.19880 | -69.00651 | 790 ft | 140 kts | 102° |
| 2026-04-17 13:42 | 12.19676 | -68.99682 | 613 ft | 140 kts | 102° |
| 2026-04-17 13:43 | 12.19470 | -68.98707 | 434 ft | 139 kts | 102° |
| 2026-04-17 13:43 | 12.19266 | -68.97740 | 254 ft | 138 kts | 102° |
| 2026-04-17 13:43 | 12.19066 | -68.96792 | 83 ft | 137 kts | 102° |
| 2026-04-17 13:43 | 12.18870 | -68.95884 | 43 ft | 103 kts | 102° |
| 2026-04-17 13:44 | 12.18777 | -68.95469 | 43 ft | 16 kts | 110° |
| 2026-04-17 13:44 | 12.18745 | -68.95414 | 43 ft | 11 kts | 145° |
| 2026-04-17 13:44 | 12.18657 | -68.95417 | 43 ft | 21 kts | 199° |
| 2026-04-17 13:44 | 12.18623 | -68.95515 | 43 ft | 5 kts | 290° |
| 2026-04-17 13:45 | 12.18612 | -68.95606 | 43 ft | 19 kts | 223° |
| 2026-04-17 13:45 | 12.18550 | -68.95629 | 43 ft | 0 kts | 191° |